createdAt,value
2018-03-20T17:18:34.887Z,3.37
2018-03-20T17:21:02.382Z,3.43
2018-03-20T17:23:29.899Z,2.57
2018-03-20T17:25:58.259Z,2.23
2018-03-20T17:28:26.617Z,1.83
2018-03-20T17:30:54.149Z,4.67
2018-03-20T17:33:21.676Z,2.23
2018-03-20T17:35:49.967Z,2.60
2018-03-20T17:38:17.515Z,1.70
2018-03-20T17:40:45.063Z,2.43
2018-03-20T17:43:12.872Z,2.53
2018-03-20T17:45:40.410Z,5.90
2018-03-20T17:48:08.696Z,7.37
2018-03-20T17:50:39.332Z,6.23
2018-03-20T17:53:07.710Z,6.53
2018-03-20T17:55:35.279Z,2.83
2018-03-20T17:58:02.828Z,7.17
2018-03-20T18:00:30.375Z,3.90
2018-03-20T18:02:58.679Z,5.20
2018-03-20T18:05:26.275Z,3.40
2018-03-20T18:07:53.791Z,5.50
2018-03-20T18:10:25.162Z,3.40
2018-03-20T18:12:52.684Z,4.63
2018-03-20T18:15:20.283Z,5.23
2018-03-20T18:17:47.851Z,3.47
2018-03-20T18:20:15.397Z,4.23
2018-03-20T18:22:43.210Z,6.53
2018-03-20T18:25:10.735Z,6.63
2018-03-20T18:27:38.268Z,5.17
2018-03-20T18:30:05.797Z,2.10
2018-03-20T18:32:34.076Z,3.27
2018-03-20T18:35:02.376Z,4.80
2018-03-20T18:37:30.065Z,5.00
2018-03-20T18:39:57.617Z,3.83
2018-03-20T18:42:25.288Z,6.27
2018-03-20T18:44:52.806Z,4.73
2018-03-20T18:47:21.142Z,4.13
2018-03-20T18:49:48.729Z,3.43
2018-03-20T18:52:17.690Z,3.97
2018-03-20T18:54:46.540Z,5.40
2018-03-20T18:57:15.479Z,6.37
2018-03-20T18:59:43.018Z,4.20
2018-03-20T19:02:10.556Z,3.60
2018-03-20T19:04:38.087Z,12.10
2018-03-20T19:07:05.739Z,4.20
2018-03-20T19:09:33.348Z,3.40
2018-03-20T19:12:00.903Z,4.67
2018-03-20T19:14:28.434Z,5.73
2018-03-20T19:16:56.077Z,4.93
2018-03-20T19:19:23.615Z,5.10
2018-03-20T19:21:51.364Z,9.77
2018-03-20T19:24:19.738Z,6.30
2018-03-20T19:26:47.296Z,6.73
2018-03-20T19:29:14.944Z,5.57
2018-03-20T19:31:42.500Z,5.47
2018-03-20T19:34:10.027Z,4.37
2018-03-20T19:36:37.607Z,6.13
2018-03-20T19:39:05.160Z,6.80
2018-03-20T19:41:32.787Z,4.97
2018-03-20T19:44:00.319Z,6.63
2018-03-20T19:46:27.901Z,5.47
2018-03-20T19:48:55.612Z,4.83
2018-03-20T19:51:23.177Z,5.43
2018-03-20T19:53:50.711Z,10.93
2018-03-20T19:56:19.231Z,5.27
2018-03-20T19:58:47.628Z,8.33
2018-03-20T20:01:15.948Z,7.60
2018-03-20T20:03:43.462Z,4.97
2018-03-20T20:06:11.016Z,8.10
2018-03-20T20:08:38.659Z,7.33
2018-03-20T20:11:06.256Z,6.30
2018-03-20T20:13:33.788Z,8.37
2018-03-20T20:16:01.476Z,8.37
2018-03-20T20:18:29.138Z,8.63
2018-03-20T20:20:57.485Z,5.47
2018-03-20T20:23:25.060Z,5.77
2018-03-20T20:25:52.606Z,8.10
2018-03-20T20:28:20.144Z,8.03
2018-03-20T20:30:47.705Z,10.40
2018-03-20T20:33:15.261Z,10.33
2018-03-20T20:35:42.905Z,3.73
2018-03-20T20:38:10.480Z,10.60
2018-03-20T20:40:38.651Z,8.33
2018-03-20T20:43:06.201Z,6.53
2018-03-20T20:45:33.768Z,3.67
2018-03-20T20:48:01.345Z,6.47
2018-03-20T20:50:28.869Z,7.68
2018-03-20T20:52:57.172Z,6.53
2018-03-20T20:55:24.708Z,6.97
2018-03-20T20:57:53.013Z,9.23
2018-03-20T21:00:20.559Z,7.43
2018-03-20T21:02:48.092Z,9.63
2018-03-20T21:05:15.654Z,9.27
2018-03-20T21:07:43.961Z,8.97
2018-03-20T21:10:11.498Z,8.93
2018-03-20T21:12:39.772Z,6.30
2018-03-20T21:15:07.291Z,7.93
2018-03-20T21:17:34.830Z,10.50
2018-03-20T21:20:03.064Z,10.43
2018-03-20T21:22:30.614Z,10.10
2018-03-20T21:24:58.712Z,10.73
2018-03-20T21:27:27.153Z,9.27
2018-03-20T21:29:54.672Z,6.37
2018-03-20T21:32:22.209Z,7.57
2018-03-20T21:34:49.773Z,9.37
2018-03-20T21:37:17.349Z,5.23
2018-03-20T21:39:44.868Z,7.63
2018-03-20T21:42:12.445Z,5.97
2018-03-20T21:44:40.745Z,7.07
2018-03-20T21:47:08.282Z,10.10
2018-03-20T21:49:38.414Z,9.37
2018-03-20T21:52:05.960Z,10.43
2018-03-20T21:54:33.511Z,9.43
2018-03-20T21:57:01.041Z,7.27
2018-03-20T21:59:28.553Z,8.80
2018-03-20T22:01:56.071Z,10.50
2018-03-20T22:04:23.583Z,10.17
2018-03-20T22:06:51.959Z,7.63
2018-03-20T22:09:20.256Z,8.73
2018-03-20T22:11:47.777Z,6.67
2018-03-20T22:14:15.355Z,10.33
2018-03-20T22:16:42.894Z,11.07
2018-03-20T22:19:10.656Z,11.30
2018-03-20T22:21:38.191Z,10.50
2018-03-20T22:24:05.715Z,11.83
2018-03-20T22:26:33.240Z,13.00
2018-03-20T22:29:00.756Z,7.57
2018-03-20T22:31:28.289Z,11.33
2018-03-20T22:33:55.818Z,11.00
2018-03-20T22:36:23.347Z,13.73
2018-03-20T22:38:50.900Z,11.27
2018-03-20T22:41:18.420Z,11.67
2018-03-20T22:43:45.986Z,11.40
2018-03-20T22:46:14.304Z,12.27
2018-03-20T22:48:41.869Z,11.43
2018-03-20T22:51:09.405Z,11.87
2018-03-20T22:53:36.934Z,8.90
2018-03-20T22:56:04.455Z,14.03
2018-03-20T22:58:31.975Z,9.10
2018-03-20T23:01:00.264Z,8.57
2018-03-20T23:03:27.789Z,12.33
2018-03-20T23:05:56.124Z,11.50
2018-03-20T23:08:23.639Z,13.50
2018-03-20T23:10:51.932Z,17.90
2018-03-20T23:13:19.466Z,13.80
2018-03-20T23:15:46.988Z,14.43
2018-03-20T23:18:14.547Z,13.00
2018-03-20T23:20:42.085Z,14.47
2018-03-20T23:23:09.605Z,13.27
2018-03-20T23:25:37.124Z,15.77
2018-03-20T23:28:04.881Z,10.10
2018-03-20T23:30:32.412Z,12.30
2018-03-20T23:32:59.947Z,14.97
2018-03-20T23:35:27.498Z,11.93
2018-03-20T23:37:55.041Z,14.73
2018-03-20T23:40:22.611Z,11.97
2018-03-20T23:42:50.190Z,15.50
2018-03-20T23:45:17.716Z,11.03
2018-03-20T23:47:45.288Z,13.73
2018-03-20T23:50:12.828Z,14.67
2018-03-20T23:52:40.356Z,14.43
2018-03-20T23:55:08.643Z,15.50
2018-03-20T23:57:36.178Z,9.77
